Time;durP1;ratioP1;P1;durP2;ratioP2;P2;SDS_P1;SDS_P2;PMS_P1;PMS_P2;Temp;Humidity;BMP_temperature;BMP_pressure;BME280_temperature;BME280_humidity;BME280_pressure;Samples;Min_cycle;Max_cycle;Signal;HPM_P1;HPM_P2
2023/06/14 00:02:00;;;;;;;9.80;4.10;;;;;;;16.78;53.49;98874.16;4378101;32;33887;-84
2023/06/14 00:04:28;;;;;;;6.72;3.90;;;;;;;16.73;53.40;98870.72;4337743;32;33865;-85
2023/06/14 00:06:56;;;;;;;9.25;4.20;;;;;;;16.68;53.70;98870.81;4375030;32;33664;-88
2023/06/14 00:09:24;;;;;;;8.75;4.68;;;;;;;16.58;54.04;98871.84;4362609;32;34330;-84
2023/06/14 00:11:53;;;;;;;8.30;4.35;;;;;;;16.76;53.70;98873.34;4346743;32;34319;-85
2023/06/14 00:14:20;;;;;;;8.05;4.68;;;;;;;16.74;53.80;98873.37;4374132;32;33242;-89
2023/06/14 00:16:48;;;;;;;9.77;3.80;;;;;;;16.76;53.77;98870.72;4375704;32;33597;-84
2023/06/14 00:19:15;;;;;;;8.32;4.25;;;;;;;16.73;53.80;98870.72;4375613;32;35034;-84
2023/06/14 00:21:44;;;;;;;6.87;4.32;;;;;;;16.67;54.25;98876.09;4375441;32;34538;-84
2023/06/14 00:24:12;;;;;;;9.48;4.15;;;;;;;16.37;54.86;98872.19;4349678;32;32759;-84
2023/06/14 00:26:40;;;;;;;9.60;4.40;;;;;;;16.24;55.40;98881.97;4357044;32;33714;-84
2023/06/14 00:29:08;;;;;;;7.05;4.05;;;;;;;16.59;54.49;98888.41;4379167;32;34845;-85
2023/06/14 00:31:36;;;;;;;7.70;4.30;;;;;;;16.25;55.80;98889.81;4375703;32;33616;-86
2023/06/14 00:34:04;;;;;;;9.10;4.70;;;;;;;16.23;56.02;98888.09;4375754;32;34177;-88
2023/06/14 00:36:33;;;;;;;9.60;4.50;;;;;;;15.82;57.48;98885.16;4375082;32;35554;-89
2023/06/14 00:39:00;;;;;;;7.85;4.57;;;;;;;15.98;57.31;98890.16;4359120;32;34413;-85
2023/06/14 00:41:28;;;;;;;10.38;4.50;;;;;;;16.01;57.47;98884.91;4373501;32;33976;-86
2023/06/14 00:43:56;;;;;;;10.95;5.10;;;;;;;16.08;57.29;98889.16;4373468;32;33497;-84
2023/06/14 00:46:24;;;;;;;10.77;5.35;;;;;;;15.90;58.10;98889.41;4346548;32;34155;-84
2023/06/14 00:48:56;;;;;;;10.32;5.05;;;;;;;15.67;59.35;98892.31;4360504;32;34292;-86
2023/06/14 00:51:23;;;;;;;9.35;5.20;;;;;;;15.42;60.45;98894.31;4360741;32;34130;-86
2023/06/14 00:53:51;;;;;;;11.43;5.43;;;;;;;15.51;60.25;98895.09;4374874;32;33441;-85
2023/06/14 00:56:20;;;;;;;10.10;4.90;;;;;;;15.51;60.36;98895.09;4375759;32;33893;-85
2023/06/14 00:58:50;;;;;;;8.95;5.32;;;;;;;15.96;58.94;98890.19;4375513;32;34003;-86
2023/06/14 01:01:19;;;;;;;11.32;4.90;;;;;;;15.95;59.11;98885.88;4375440;32;34717;-84
2023/06/14 01:03:47;;;;;;;7.90;4.90;;;;;;;15.39;61.11;98900.44;4375839;32;33187;-86
2023/06/14 01:06:29;;;;;;;8.25;5.12;;;;;;;15.80;59.65;98883.47;4361965;32;33931;-86
2023/06/14 01:09:19;;;;;;;9.55;5.30;;;;;;;15.94;59.30;98880.63;4375616;32;34224;-86
2023/06/14 01:12:28;;;;;;;8.40;5.20;;;;;;;15.69;60.21;98883.59;4375841;32;34084;-86
2023/06/14 01:14:57;;;;;;;8.95;5.50;;;;;;;16.14;59.38;98885.59;4358054;32;34311;-85
2023/06/14 01:17:26;;;;;;;8.40;5.20;;;;;;;15.90;59.75;98892.03;4371938;32;33880;-86
2023/06/14 01:19:57;;;;;;;9.38;5.75;;;;;;;15.99;59.60;98884.09;4361068;32;34351;-85
2023/06/14 01:22:26;;;;;;;9.10;5.78;;;;;;;15.78;60.56;98885.22;4371828;32;33730;-86
2023/06/14 01:24:55;;;;;;;10.82;6.35;;;;;;;15.66;60.95;98883.63;4375668;32;34506;-86
2023/06/14 01:27:24;;;;;;;10.18;6.20;;;;;;;15.43;62.02;98885.63;4375447;32;33215;-85
2023/06/14 01:29:56;;;;;;;9.18;6.18;;;;;;;14.88;63.92;98886.16;4374444;32;33776;-85
2023/06/14 01:32:26;;;;;;;10.00;6.05;;;;;;;14.95;64.08;98883.47;4360934;32;33277;-86
2023/06/14 01:34:54;;;;;;;10.25;6.53;;;;;;;15.23;63.13;98883.22;4359196;32;33428;-85
2023/06/14 01:37:22;;;;;;;12.90;7.07;;;;;;;15.40;62.70;98889.13;4357268;32;33435;-86
2023/06/14 01:39:50;;;;;;;10.73;7.43;;;;;;;15.28;63.16;98890.13;4374266;32;35070;-86
2023/06/14 01:42:19;;;;;;;10.88;7.37;;;;;;;15.26;63.60;98883.16;4373771;32;34597;-86
2023/06/14 01:44:47;;;;;;;12.30;6.78;;;;;;;15.64;62.41;98889.69;4361886;32;33426;-86
2023/06/14 01:47:15;;;;;;;11.52;7.82;;;;;;;15.77;61.86;98892.19;4362053;32;33946;-86
2023/06/14 01:49:43;;;;;;;12.35;7.87;;;;;;;15.98;61.39;98890.16;4361923;32;34312;-86
2023/06/14 01:52:10;;;;;;;13.48;7.85;;;;;;;15.93;61.47;98886.75;4375710;32;33659;-85
2023/06/14 01:54:42;;;;;;;11.18;7.80;;;;;;;15.90;61.81;98886.78;4375405;32;34151;-88
2023/06/14 01:57:10;;;;;;;15.40;9.52;;;;;;;15.74;62.32;98892.22;4361681;32;34068;-85
2023/06/14 01:59:38;;;;;;;12.20;8.52;;;;;;;15.57;62.76;98892.41;4375570;32;34788;-85
2023/06/14 02:02:05;;;;;;;15.52;9.45;;;;;;;15.57;62.92;98895.03;4375896;32;33963;-85
2023/06/14 02:04:33;;;;;;;14.52;9.10;;;;;;;15.22;64.48;98897.13;4374792;32;33591;-84
2023/06/14 02:07:00;;;;;;;16.00;9.27;;;;;;;15.58;63.28;98896.75;4361844;32;34701;-86
2023/06/14 02:09:28;;;;;;;13.40;8.48;;;;;;;15.54;63.64;98900.28;4375343;32;34989;-90
2023/06/14 02:11:56;;;;;;;14.68;9.00;;;;;;;15.95;62.43;98901.56;4375230;32;34025;-84
2023/06/14 02:14:24;;;;;;;16.90;9.88;;;;;;;15.47;63.79;98906.44;4360222;32;33434;-85
2023/06/14 02:16:52;;;;;;;12.82;8.90;;;;;;;15.36;64.50;98903.09;4361891;32;34746;-85
2023/06/14 02:19:21;;;;;;;14.75;9.73;;;;;;;15.14;64.99;98906.81;4361267;32;33966;-84
2023/06/14 02:21:49;;;;;;;17.23;10.10;;;;;;;15.58;63.71;98907.19;4373994;32;34578;-85
2023/06/14 02:24:16;;;;;;;13.82;9.60;;;;;;;15.36;64.57;98904.84;4374657;32;34226;-84
2023/06/14 02:26:44;;;;;;;16.80;10.80;;;;;;;15.61;63.61;98906.31;4375105;32;33950;-85
2023/06/14 02:29:14;;;;;;;17.40;11.50;;;;;;;15.15;65.37;98900.69;4375093;32;34877;-85
2023/06/14 02:31:42;;;;;;;14.43;9.88;;;;;;;14.90;66.37;98906.16;4374898;32;35003;-86
2023/06/14 02:34:10;;;;;;;15.60;10.35;;;;;;;15.20;65.66;98904.13;4361305;32;33528;-85
2023/06/14 02:36:41;;;;;;;15.10;10.70;;;;;;;15.21;65.47;98900.62;4374785;32;33722;-85
2023/06/14 02:39:10;;;;;;;19.27;10.88;;;;;;;15.26;65.22;98904.91;4374528;32;34967;-86
2023/06/14 02:41:38;;;;;;;16.00;10.40;;;;;;;15.45;64.88;98907.34;4361457;32;33774;-86
2023/06/14 02:44:06;;;;;;;15.63;10.90;;;;;;;15.28;65.29;98908.41;4361740;32;33676;-85
2023/06/14 02:46:33;;;;;;;16.00;11.05;;;;;;;15.57;64.35;98907.22;4374525;32;33783;-85
2023/06/14 02:49:02;;;;;;;17.12;11.05;;;;;;;15.51;64.62;98904.66;4374716;32;35419;-85
2023/06/14 02:51:31;;;;;;;16.33;10.82;;;;;;;15.52;64.19;98901.16;4361548;32;33784;-85
2023/06/14 02:53:58;;;;;;;14.48;10.05;;;;;;;15.45;64.66;98905.59;4374728;32;33421;-89
2023/06/14 02:56:35;;;;;;;14.63;10.57;;;;;;;15.52;64.53;98902.03;4374485;32;33765;-84
2023/06/14 02:59:03;;;;;;;18.50;11.10;;;;;;;15.43;65.05;98902.16;4374799;32;33842;-86
2023/06/14 03:01:33;;;;;;;17.87;11.30;;;;;;;15.46;64.75;98912.56;4374453;32;33752;-86
2023/06/14 03:04:03;;;;;;;16.37;10.85;;;;;;;15.78;63.53;98901.75;4374137;32;33514;-87
2023/06/14 03:06:31;;;;;;;17.98;11.12;;;;;;;15.88;63.28;98907.75;4361294;32;33989;-86
2023/06/14 03:09:05;;;;;;;18.45;11.93;;;;;;;15.33;65.36;98905.72;4374790;32;35087;-85
2023/06/14 03:11:34;;;;;;;16.70;11.02;;;;;;;15.14;66.35;98905.06;4376503;32;33910;-88
2023/06/14 03:14:04;;;;;;;18.23;11.57;;;;;;;15.23;65.87;98901.50;4376673;32;34413;-85
2023/06/14 03:16:31;;;;;;;15.68;11.27;;;;;;;15.33;65.77;98905.72;4362923;32;33793;-91
2023/06/14 03:18:59;;;;;;;17.37;12.10;;;;;;;15.26;65.63;98899.69;4363134;32;33866;-89
2023/06/14 03:21:30;;;;;;;19.05;12.95;;;;;;;15.12;66.49;98905.97;4376637;32;33574;-85
2023/06/14 03:23:57;;;;;;;20.62;14.50;;;;;;;15.53;65.13;98905.50;4376820;32;34325;-86
2023/06/14 03:26:31;;;;;;;20.42;13.73;;;;;;;15.03;66.78;98902.53;4374843;32;34651;-86
2023/06/14 03:28:59;;;;;;;19.42;13.50;;;;;;;14.93;67.48;98907.88;4375314;32;35057;-84
2023/06/14 03:31:32;;;;;;;16.33;12.25;;;;;;;15.14;67.19;98909.41;4375674;32;34718;-86
2023/06/14 03:34:01;;;;;;;17.95;11.57;;;;;;;15.42;66.10;98912.59;4375410;32;33588;-88
2023/06/14 03:36:29;;;;;;;18.02;12.93;;;;;;;15.22;66.76;98913.66;4376592;32;34857;-86
2023/06/14 03:38:57;;;;;;;19.55;12.68;;;;;;;15.68;65.64;98914.94;4362563;32;34140;-87
2023/06/14 03:41:26;;;;;;;17.73;12.93;;;;;;;15.62;65.56;98908.03;4376495;32;33460;-87
2023/06/14 03:43:54;;;;;;;17.52;11.77;;;;;;;15.90;64.53;98919.03;4367706;32;34031;-87
2023/06/14 03:46:21;;;;;;;18.60;12.45;;;;;;;15.92;64.07;98908.56;4376395;32;34820;-87
2023/06/14 03:48:49;;;;;;;16.70;10.90;;;;;;;16.00;64.51;98910.19;4362634;32;34126;-87
2023/06/14 03:51:18;;;;;;;18.67;12.30;;;;;;;16.25;63.78;98909.84;4376006;32;34053;-88
2023/06/14 03:53:46;;;;;;;17.48;11.82;;;;;;;16.78;61.96;98911.69;4376301;32;33579;-86
2023/06/14 03:56:34;;;;;;;16.10;11.25;;;;;;;17.16;60.14;98911.91;4376368;32;33877;-89
2023/06/14 03:59:05;;;;;;;15.13;10.70;;;;;;;17.21;59.77;98916.19;4376273;32;34944;-88
2023/06/14 04:01:33;;;;;;;14.10;10.15;;;;;;;17.16;59.84;98922.38;4374828;32;33429;-89
2023/06/14 04:04:01;;;;;;;17.50;10.80;;;;;;;17.37;59.48;98919.37;4375947;32;33993;-87
2023/06/14 04:06:32;;;;;;;16.15;10.63;;;;;;;17.29;59.33;98918.66;4375819;32;33994;-86
2023/06/14 04:09:02;;;;;;;15.93;11.15;;;;;;;17.61;59.02;98920.66;4374884;32;33928;-88
2023/06/14 04:11:31;;;;;;;15.02;10.00;;;;;;;18.01;57.12;98911.16;4374427;32;33969;-88
2023/06/14 04:13:59;;;;;;;17.80;9.65;;;;;;;17.90;57.41;98929.75;4374859;32;33451;-87
2023/06/14 04:16:26;;;;;;;16.17;11.05;;;;;;;17.75;58.04;98923.91;4361713;32;34784;-87
2023/06/14 04:18:55;;;;;;;15.80;10.30;;;;;;;18.15;56.98;98924.84;4375783;32;33219;-87
2023/06/14 04:21:23;;;;;;;15.10;9.93;;;;;;;18.45;56.57;98931.19;4375675;32;33415;-87
2023/06/14 04:23:52;;;;;;;15.00;9.68;;;;;;;18.59;55.94;98922.97;4376134;32;34251;-87
2023/06/14 04:26:23;;;;;;;15.85;9.90;;;;;;;19.22;54.02;98929.34;4376308;32;34054;-87
2023/06/14 04:28:56;;;;;;;13.27;9.55;;;;;;;19.13;54.25;98930.41;4358178;32;33464;-87
2023/06/14 04:31:29;;;;;;;14.13;9.60;;;;;;;19.13;53.78;98919.91;4376358;32;33590;-87
2023/06/14 04:33:59;;;;;;;14.65;9.88;;;;;;;19.26;54.13;98920.47;4375398;32;33633;-88
2023/06/14 04:36:27;;;;;;;16.08;10.13;;;;;;;19.31;53.76;98929.06;4376189;32;34540;-88
2023/06/14 04:38:55;;;;;;;16.08;10.23;;;;;;;19.56;52.53;98935.41;4368397;32;34908;-87
2023/06/14 04:41:30;;;;;;;15.55;10.02;;;;;;;19.76;52.13;98934.87;4365597;32;34809;-88
2023/06/14 04:44:01;;;;;;;15.60;10.20;;;;;;;19.26;52.86;98930.97;4374989;32;33402;-91
2023/06/14 04:46:31;;;;;;;15.00;10.13;;;;;;;19.56;53.01;98927.53;4375852;32;33937;-87
2023/06/14 04:49:02;;;;;;;14.95;9.50;;;;;;;19.80;51.87;98930.41;4376001;32;34970;-87
2023/06/14 04:51:33;;;;;;;15.82;9.02;;;;;;;19.35;52.88;98933.34;4362187;32;34726;-87
2023/06/14 04:54:01;;;;;;;12.35;8.73;;;;;;;19.79;52.39;98932.16;4374499;32;35979;-87
2023/06/14 04:56:30;;;;;;;18.33;9.80;;;;;;;19.47;51.92;98934.78;4376148;32;33747;-88
2023/06/14 04:58:57;;;;;;;17.70;9.00;;;;;;;19.12;52.96;98941.81;4374260;32;33573;-88
2023/06/14 05:01:26;;;;;;;16.40;9.25;;;;;;;19.63;52.87;98941.41;4360510;32;34637;-92
2023/06/14 05:03:54;;;;;;;17.08;9.20;;;;;;;20.02;51.81;98942.03;4370566;32;34386;-89
2023/06/14 05:06:22;;;;;;;13.82;9.20;;;;;;;19.53;52.93;98934.63;4373641;32;34805;-89
2023/06/14 05:08:50;;;;;;;14.18;9.38;;;;;;;18.98;53.01;98946.56;4373271;32;33636;-86
2023/06/14 05:11:17;;;;;;;15.63;9.18;;;;;;;19.24;53.39;98936.25;4359563;32;33771;-86
2023/06/14 05:13:46;;;;;;;13.75;9.38;;;;;;;19.60;52.36;98938.81;4359343;32;33152;-91
2023/06/14 05:16:15;;;;;;;13.62;8.05;;;;;;;19.46;52.30;98939.19;4358753;32;34595;-91
2023/06/14 05:18:47;;;;;;;13.13;8.75;;;;;;;19.59;52.64;98935.34;4361994;32;35181;-87
2023/06/14 05:21:17;;;;;;;10.93;7.43;;;;;;;19.16;52.75;98940.84;4375157;32;33581;-87
2023/06/14 05:23:45;;;;;;;12.60;8.35;;;;;;;19.58;52.25;98935.34;4374890;32;33115;-90
2023/06/14 05:26:13;;;;;;;11.25;7.75;;;;;;;19.84;52.71;98945.19;4375133;32;34816;-87
2023/06/14 05:28:40;;;;;;;13.77;8.77;;;;;;;19.64;52.74;98948.38;4375154;32;34914;-90
2023/06/14 05:31:07;;;;;;;13.80;8.77;;;;;;;19.67;52.15;98945.66;4372540;32;33055;-88
2023/06/14 05:33:35;;;;;;;13.48;7.82;;;;;;;19.68;53.14;98950.88;4373964;32;33547;-87
2023/06/14 05:36:03;;;;;;;16.23;8.40;;;;;;;19.78;53.14;98946.22;4373272;32;34432;-86
2023/06/14 05:38:32;;;;;;;12.10;7.87;;;;;;;20.03;51.84;98950.78;4374449;32;34265;-88
2023/06/14 05:41:00;;;;;;;12.98;7.97;;;;;;;19.36;52.58;98953.50;4375035;32;33903;-85
2023/06/14 05:43:27;;;;;;;11.63;7.75;;;;;;;19.31;53.10;98950.97;4374869;32;34054;-88
2023/06/14 05:45:55;;;;;;;11.23;8.35;;;;;;;19.85;52.42;98947.78;4374808;32;34358;-87
2023/06/14 05:48:22;;;;;;;13.45;8.27;;;;;;;19.88;51.79;98944.19;4359704;32;34134;-86
2023/06/14 05:50:50;;;;;;;11.93;8.20;;;;;;;20.22;51.51;98949.31;4374641;32;34996;-88
2023/06/14 05:53:17;;;;;;;12.30;7.78;;;;;;;20.95;50.24;98951.47;4375544;32;34552;-91
2023/06/14 05:55:45;;;;;;;12.15;7.35;;;;;;;20.62;51.06;98954.28;4375200;32;34749;-88
2023/06/14 05:58:13;;;;;;;11.43;7.85;;;;;;;20.97;50.08;98946.16;4361369;32;35081;-87
2023/06/14 06:00:40;;;;;;;11.30;7.05;;;;;;;20.53;49.84;98951.06;4375044;32;34377;-87
2023/06/14 06:03:09;;;;;;;13.50;8.32;;;;;;;20.12;51.79;98956.66;4375561;32;34359;-88
2023/06/14 06:05:36;;;;;;;12.75;8.15;;;;;;;20.84;51.54;98946.56;4375412;32;33943;-87
2023/06/14 06:08:04;;;;;;;12.10;7.45;;;;;;;20.61;51.14;98955.19;4361772;32;35351;-87
2023/06/14 06:10:32;;;;;;;12.93;7.62;;;;;;;21.09;49.59;98951.88;4375227;32;33787;-87
2023/06/14 06:13:00;;;;;;;12.15;7.05;;;;;;;20.76;50.08;98948.59;4375382;32;33263;-88
2023/06/14 06:15:28;;;;;;;13.35;8.20;;;;;;;20.39;50.44;98954.97;4361782;32;33937;-88
2023/06/14 07:25:29;;;;;;;16.67;8.35;;;;;;;21.09;50.74;98966.81;4486050;27;20074;-89
2023/06/14 07:27:57;;;;;;;13.15;8.65;;;;;;;21.22;50.39;98968.16;4359338;32;33777;-88
2023/06/14 07:30:26;;;;;;;13.93;8.15;;;;;;;21.16;50.48;98967.50;4359304;32;33954;-88
2023/06/14 07:32:54;;;;;;;13.90;8.65;;;;;;;20.97;50.61;98967.25;4359259;32;34864;-90
2023/06/14 07:35:22;;;;;;;11.55;7.45;;;;;;;21.24;50.27;98976.84;4359362;32;33887;-90
2023/06/14 07:37:50;;;;;;;13.62;8.20;;;;;;;20.99;50.22;98971.56;4359428;32;33936;-89
2023/06/14 07:40:17;;;;;;;17.40;10.43;;;;;;;21.25;50.16;98973.34;4345466;32;34280;-88
2023/06/14 07:42:45;;;;;;;15.75;9.07;;;;;;;20.59;50.02;98975.44;4359259;32;34093;-90
2023/06/14 07:45:15;;;;;;;18.05;9.57;;;;;;;21.18;49.48;98976.22;4359049;32;34176;-89
2023/06/14 07:47:44;;;;;;;17.05;9.15;;;;;;;21.39;49.00;98986.06;4345954;32;33327;-89
2023/06/14 07:50:13;;;;;;;15.45;9.07;;;;;;;21.76;49.72;98983.00;4345827;32;33344;-90
2023/06/14 07:52:40;;;;;;;13.30;8.13;;;;;;;21.45;49.52;98990.28;4358888;32;34862;-89
2023/06/14 07:55:08;;;;;;;16.15;8.38;;;;;;;21.14;49.37;98986.00;4359387;32;33866;-88
2023/06/14 07:57:36;;;;;;;14.75;9.15;;;;;;;21.18;49.52;98992.03;4346739;32;33772;-87
2023/06/14 08:00:07;;;;;;;11.45;7.18;;;;;;;21.10;49.00;98989.63;4354547;32;35003;-89
2023/06/14 08:02:38;;;;;;;13.48;7.75;;;;;;;21.99;47.28;98990.09;4346266;33;34669;-88
2023/06/14 08:05:06;;;;;;;12.63;7.43;;;;;;;21.78;47.28;98993.50;4333051;33;35328;-90
2023/06/14 08:07:34;;;;;;;12.18;6.80;;;;;;;21.83;47.55;98989.78;4346038;33;34741;-90
2023/06/14 08:10:01;;;;;;;13.85;7.87;;;;;;;21.75;47.28;98989.22;4332495;33;33186;-90
2023/06/14 08:12:29;;;;;;;14.43;7.68;;;;;;;22.16;46.27;98984.25;4346392;33;33970;-90
2023/06/14 08:14:56;;;;;;;13.23;7.40;;;;;;;21.99;45.72;98992.72;4346215;33;34358;-89
2023/06/14 08:17:43;;;;;;;16.87;7.25;;;;;;;22.16;46.18;98988.63;4346389;33;34297;-90
2023/06/14 08:20:13;;;;;;;12.60;7.35;;;;;;;22.38;46.81;98988.69;4346081;33;33580;-91
2023/06/14 08:22:42;;;;;;;11.07;6.40;;;;;;;21.96;48.64;98992.84;4346196;33;33808;-90
2023/06/14 08:25:12;;;;;;;11.48;6.10;;;;;;;22.01;47.01;98997.94;4346122;33;35114;-90
2023/06/14 08:27:40;;;;;;;15.00;6.22;;;;;;;21.84;45.90;98999.41;4346171;33;33436;-89
2023/06/14 08:30:08;;;;;;;11.55;5.80;;;;;;;21.82;46.30;99001.28;4346262;33;33781;-88
2023/06/14 08:32:36;;;;;;;16.12;5.82;;;;;;;22.05;45.99;99002.22;4346099;33;33579;-89
2023/06/14 08:35:05;;;;;;;12.18;6.43;;;;;;;21.83;46.81;98996.84;4332519;33;34144;-90
2023/06/14 08:37:35;;;;;;;13.45;5.80;;;;;;;21.80;47.60;99002.22;4346651;33;34330;-89
2023/06/14 08:40:05;;;;;;;11.80;5.93;;;;;;;21.55;48.11;99013.62;4346253;33;33587;-90
2023/06/14 08:42:35;;;;;;;11.82;6.05;;;;;;;21.77;47.83;99011.09;4345989;33;34004;-91
2023/06/14 08:45:03;;;;;;;10.43;5.18;;;;;;;21.76;48.93;99016.44;4346153;33;33816;-90
2023/06/14 08:47:36;;;;;;;11.07;5.90;;;;;;;22.01;47.61;99014.66;4346152;33;34832;-89
2023/06/14 08:50:09;;;;;;;9.07;5.35;;;;;;;22.16;48.02;99021.22;4346250;33;34191;-90
2023/06/14 08:52:57;;;;;;;9.73;5.40;;;;;;;22.52;47.03;99010.16;4346305;33;34687;-89
2023/06/14 08:55:27;;;;;;;12.77;5.50;;;;;;;22.67;45.80;99027.22;4332821;33;34032;-89
2023/06/14 08:57:59;;;;;;;10.98;4.65;;;;;;;22.61;47.02;99022.16;4346420;33;32564;-90
2023/06/14 09:00:28;;;;;;;9.32;4.80;;;;;;;22.75;45.93;99036.56;4345830;33;34320;-90
2023/06/14 09:02:57;;;;;;;11.90;4.55;;;;;;;22.70;45.15;99038.53;4345945;33;33309;-89
2023/06/14 09:05:25;;;;;;;12.18;4.40;;;;;;;22.97;44.55;99030.47;4345861;33;33995;-89
2023/06/14 09:07:56;;;;;;;9.30;4.25;;;;;;;22.98;43.31;99033.03;4343526;33;33942;-90
2023/06/14 09:10:25;;;;;;;9.75;4.45;;;;;;;22.83;44.68;99028.31;4346131;33;33585;-90
2023/06/14 09:12:55;;;;;;;11.63;4.60;;;;;;;22.38;41.60;99033.59;4332722;33;33874;-89
2023/06/14 09:15:22;;;;;;;10.20;4.78;;;;;;;22.78;42.43;99035.59;4346037;33;34168;-90
2023/06/14 09:17:51;;;;;;;9.48;4.50;;;;;;;23.06;43.04;99036.22;4345778;33;34741;-89
2023/06/14 09:20:19;;;;;;;8.57;4.30;;;;;;;23.34;41.92;99028.97;4345927;33;34086;-88
2023/06/14 09:22:47;;;;;;;11.55;6.10;;;;;;;22.88;45.57;99031.66;4345798;33;33828;-90
2023/06/14 09:25:15;;;;;;;8.90;4.47;;;;;;;22.94;43.12;99027.94;4345849;33;34096;-89
2023/06/14 09:28:06;;;;;;;10.90;5.57;;;;;;;23.26;42.39;99026.63;4345972;33;34947;-90
2023/06/14 09:30:34;;;;;;;13.85;5.45;;;;;;;22.83;44.32;99033.63;4344668;33;33503;-90
2023/06/14 09:33:01;;;;;;;9.57;5.15;;;;;;;23.19;43.51;99022.53;4345597;33;35848;-89
2023/06/14 09:35:31;;;;;;;10.30;5.47;;;;;;;23.58;44.36;99029.72;4345561;33;35081;-90
2023/06/14 09:37:59;;;;;;;8.45;4.90;;;;;;;23.52;42.81;99025.53;4345929;33;34721;-89
2023/06/14 09:40:27;;;;;;;12.10;5.18;;;;;;;23.13;43.32;99017.47;4345644;33;33334;-90
2023/06/14 09:42:57;;;;;;;10.00;5.47;;;;;;;23.55;41.19;99018.31;4332305;33;33582;-89
2023/06/14 09:45:28;;;;;;;12.90;5.12;;;;;;;23.62;42.61;99015.44;4345137;33;33979;-85
2023/06/14 09:47:58;;;;;;;11.02;4.40;;;;;;;23.20;41.69;99013.66;4345187;33;33642;-91
2023/06/14 09:50:34;;;;;;;11.00;5.20;;;;;;;23.59;41.93;99019.06;4345600;33;34418;-90
2023/06/14 09:53:11;;;;;;;10.45;4.78;;;;;;;23.41;42.60;99012.78;4332245;33;34022;-90
2023/06/14 09:55:40;;;;;;;9.48;5.00;;;;;;;23.44;42.09;99014.41;4344448;33;34162;-90
2023/06/14 09:58:09;;;;;;;9.00;4.07;;;;;;;23.64;42.15;99010.91;4345666;33;34387;-89
2023/06/14 10:00:38;;;;;;;9.55;4.60;;;;;;;24.02;41.06;99015.44;4345990;33;33672;-90
2023/06/14 10:03:13;;;;;;;8.40;4.65;;;;;;;23.67;42.16;99005.53;4345411;33;33753;-90
2023/06/14 10:05:43;;;;;;;14.55;4.78;;;;;;;24.12;41.89;99013.22;4345618;33;34945;-90
2023/06/14 10:08:17;;;;;;;11.30;4.60;;;;;;;24.44;41.89;99008.31;4320202;33;33583;-88
2023/06/14 10:10:45;;;;;;;7.85;4.00;;;;;;;24.73;39.73;99002.47;4332886;33;34265;-89
2023/06/14 10:13:13;;;;;;;10.40;4.78;;;;;;;24.92;39.09;98997.16;4345922;33;33764;-90
2023/06/14 10:15:48;;;;;;;8.20;3.87;;;;;;;24.45;42.68;99004.72;4332193;33;34922;-91
2023/06/14 10:18:32;;;;;;;8.00;3.70;;;;;;;24.50;40.51;99000.91;4331599;33;33985;-89
2023/06/14 10:21:08;;;;;;;8.52;4.15;;;;;;;24.98;38.55;98996.00;4332126;33;34262;-89
2023/06/14 10:23:39;;;;;;;9.05;4.00;;;;;;;24.81;37.31;98990.66;4331902;33;34674;-89
2023/06/14 10:26:07;;;;;;;8.43;3.97;;;;;;;25.01;38.68;98993.22;4331945;33;34525;-91
2023/06/14 10:28:37;;;;;;;6.12;3.30;;;;;;;25.44;35.57;98991.09;4331486;33;32162;-89
2023/06/14 10:31:09;;;;;;;5.70;3.00;;;;;;;25.55;35.50;98991.41;4345116;33;33336;-89
2023/06/14 10:33:50;;;;;;;5.75;3.00;;;;;;;24.75;35.65;98987.37;4345299;33;34112;-90
2023/06/14 10:36:31;;;;;;;6.28;2.50;;;;;;;25.47;34.35;98988.28;4345112;33;33847;-90
2023/06/14 10:39:05;;;;;;;8.23;3.05;;;;;;;25.50;35.79;98985.47;4345338;33;33823;-90
2023/06/14 10:41:40;;;;;;;8.98;2.78;;;;;;;25.30;36.85;98990.91;4344974;33;33133;-89
2023/06/14 10:44:14;;;;;;;7.82;2.87;;;;;;;24.50;35.21;98981.50;4331830;33;34607;-90
2023/06/14 10:46:49;;;;;;;5.30;2.70;;;;;;;24.80;35.25;98988.94;4345012;33;35108;-90
2023/06/14 10:49:19;;;;;;;7.30;2.60;;;;;;;24.86;36.91;98988.66;4332017;33;33786;-90
2023/06/14 10:51:51;;;;;;;4.97;2.47;;;;;;;24.50;35.86;98976.19;4345176;33;33259;-90
2023/06/14 10:54:20;;;;;;;8.60;2.70;;;;;;;24.72;33.88;98979.56;4345308;33;33696;-91
2023/06/14 10:56:49;;;;;;;7.22;2.62;;;;;;;24.43;33.04;98974.75;4345382;33;34201;-90
2023/06/14 10:59:18;;;;;;;6.25;2.62;;;;;;;24.89;33.14;98965.50;4345181;33;33592;-89
2023/06/14 11:02:04;;;;;;;5.95;2.30;;;;;;;24.86;32.81;98968.28;4345177;33;33581;-88
2023/06/14 11:04:48;;;;;;;6.15;2.75;;;;;;;25.03;32.38;98966.59;4345000;33;34673;-90
2023/06/14 11:07:53;;;;;;;5.90;2.47;;;;;;;25.26;32.87;98971.63;4331745;33;34193;-90
2023/06/14 11:10:40;;;;;;;6.12;2.62;;;;;;;25.31;32.23;98963.47;4344974;33;34595;-89
2023/06/14 11:13:08;;;;;;;6.07;2.80;;;;;;;25.03;34.43;98967.44;4344801;33;33355;-90
2023/06/14 11:15:37;;;;;;;5.28;2.75;;;;;;;24.96;31.18;98958.97;4344868;33;33964;-89
2023/06/14 11:18:06;;;;;;;6.72;2.42;;;;;;;25.06;32.18;98962.00;4331357;33;34968;-87
2023/06/14 11:20:35;;;;;;;5.97;2.80;;;;;;;25.00;31.40;98962.28;4344783;33;33558;-91
2023/06/14 11:23:04;;;;;;;5.25;2.78;;;;;;;24.80;32.25;98967.72;4344503;33;33103;-89
2023/06/14 11:25:32;;;;;;;5.00;2.40;;;;;;;25.44;30.26;98967.19;4344528;33;33718;-90
2023/06/14 11:28:00;;;;;;;8.13;3.25;;;;;;;24.48;33.51;98967.47;4344859;33;34087;-90
2023/06/14 11:30:27;;;;;;;6.80;2.60;;;;;;;24.45;33.82;98964.97;4345107;33;34718;-89
2023/06/14 11:32:55;;;;;;;5.35;2.40;;;;;;;24.74;37.75;98969.75;4346480;33;33631;-89
2023/06/14 11:35:26;;;;;;;7.12;3.12;;;;;;;24.84;37.98;98966.63;4333596;33;34781;-90
2023/06/14 11:37:57;;;;;;;5.00;2.70;;;;;;;24.87;31.45;98954.09;4346529;33;34019;-87
2023/06/14 11:40:26;;;;;;;6.65;2.83;;;;;;;24.81;36.94;98958.81;4346581;33;34354;-91
2023/06/14 11:43:00;;;;;;;5.53;2.20;;;;;;;24.63;31.86;98944.69;4346556;33;33541;-89
2023/06/14 11:45:29;;;;;;;5.87;2.78;;;;;;;24.60;34.91;98963.38;4347071;33;33849;-90
2023/06/14 11:48:00;;;;;;;7.85;2.72;;;;;;;24.88;31.86;98957.59;4346761;33;33501;-90
2023/06/14 11:50:27;;;;;;;6.15;2.28;;;;;;;25.41;31.53;98954.09;4346636;33;33964;-90
2023/06/14 11:53:03;;;;;;;4.85;2.42;;;;;;;25.58;32.85;98961.19;4346558;33;34424;-90
2023/06/14 11:55:31;;;;;;;5.10;2.67;;;;;;;25.93;30.50;98954.06;4346564;33;33672;-90
2023/06/14 11:57:58;;;;;;;6.00;2.80;;;;;;;25.85;31.60;98950.94;4346346;33;33911;-90
2023/06/14 12:00:27;;;;;;;6.40;2.83;;;;;;;25.50;31.47;98955.44;4346454;33;33710;-90
2023/06/14 12:02:56;;;;;;;5.85;2.72;;;;;;;25.19;31.83;98963.16;4346366;33;33496;-89
2023/06/14 12:05:25;;;;;;;5.57;2.72;;;;;;;25.30;33.09;98972.34;4345182;33;34627;-90
2023/06/14 12:08:00;;;;;;;8.90;2.70;;;;;;;25.44;35.20;98965.41;4345127;33;33845;-88
2023/06/14 12:10:28;;;;;;;7.22;2.70;;;;;;;25.75;31.53;98960.28;4346271;33;34067;-89
2023/06/14 12:12:58;;;;;;;6.55;3.10;;;;;;;24.83;33.11;98959.63;4346062;33;34225;-90
2023/06/14 12:15:31;;;;;;;7.22;3.00;;;;;;;24.90;34.11;98961.91;4346378;33;33484;-90
2023/06/14 12:17:59;;;;;;;5.60;2.45;;;;;;;24.68;35.03;98958.56;4346327;33;34080;-90
2023/06/14 12:20:31;;;;;;;5.12;2.58;;;;;;;24.66;36.56;98971.91;4346132;33;34037;-89
2023/06/14 12:23:00;;;;;;;5.93;2.67;;;;;;;24.63;36.34;98971.19;4346300;33;33470;-90
2023/06/14 12:25:36;;;;;;;5.12;2.42;;;;;;;24.47;36.60;98965.75;4346187;33;34984;-88
2023/06/14 12:28:08;;;;;;;9.93;2.50;;;;;;;24.88;35.72;98962.91;4346212;33;33910;-90
2023/06/14 12:30:37;;;;;;;9.75;3.08;;;;;;;25.22;34.83;98975.38;4346350;33;34731;-89
2023/06/14 12:33:05;;;;;;;6.57;2.70;;;;;;;24.75;34.77;98981.22;4344991;33;33086;-89
2023/06/14 12:35:34;;;;;;;4.75;2.40;;;;;;;24.22;35.86;98977.47;4346425;33;33962;-89
2023/06/14 12:38:03;;;;;;;9.27;3.28;;;;;;;24.65;35.70;98970.16;4346268;33;34355;-89
2023/06/14 12:40:31;;;;;;;5.85;2.65;;;;;;;24.70;36.74;98973.47;4344710;33;34614;-89
2023/06/14 12:43:04;;;;;;;9.50;3.50;;;;;;;24.39;38.33;98976.69;4345900;33;34113;-90
2023/06/14 12:45:31;;;;;;;7.07;3.28;;;;;;;24.64;37.95;98972.91;4357024;32;33973;-90
2023/06/14 12:47:59;;;;;;;5.03;2.40;;;;;;;24.75;38.77;98976.75;4346120;33;34217;-89